sensor_id;sensor_type;location;lat;lon;timestamp;pressure;altitude;pressure_sealevel;temperature;humidity
53246;BME280;39569;51.090;-1.786;2023-12-22T00:02:18;100775.22;;;20.61;43.61
53246;BME280;39569;51.090;-1.786;2023-12-22T00:04:46;100755.19;;;20.39;44.34
53246;BME280;39569;51.090;-1.786;2023-12-22T00:07:13;100758.72;;;20.28;44.41
53246;BME280;39569;51.090;-1.786;2023-12-22T00:09:40;100755.88;;;20.46;44.85
53246;BME280;39569;51.090;-1.786;2023-12-22T00:12:06;100757.41;;;19.84;46.39
53246;BME280;39569;51.090;-1.786;2023-12-22T00:14:33;100734.22;;;19.47;46.99
53246;BME280;39569;51.090;-1.786;2023-12-22T00:17:00;100736.88;;;19.77;46.51
53246;BME280;39569;51.090;-1.786;2023-12-22T00:19:27;100754.00;;;20.12;45.84
53246;BME280;39569;51.090;-1.786;2023-12-22T00:21:55;100747.13;;;20.67;44.77
53246;BME280;39569;51.090;-1.786;2023-12-22T00:24:23;100753.03;;;19.95;46.07
53246;BME280;39569;51.090;-1.786;2023-12-22T00:26:50;100744.56;;;20.37;45.03
53246;BME280;39569;51.090;-1.786;2023-12-22T00:29:17;100751.59;;;19.69;46.61
53246;BME280;39569;51.090;-1.786;2023-12-22T00:31:43;100729.59;;;20.12;45.41
53246;BME280;39569;51.090;-1.786;2023-12-22T00:34:10;100746.38;;;19.56;46.88
53246;BME280;39569;51.090;-1.786;2023-12-22T00:36:37;100745.97;;;20.05;45.81
53246;BME280;39569;51.090;-1.786;2023-12-22T00:39:05;100734.19;;;19.88;46.31
53246;BME280;39569;51.090;-1.786;2023-12-22T00:41:33;100742.41;;;19.58;46.65
53246;BME280;39569;51.090;-1.786;2023-12-22T00:43:59;100737.59;;;19.84;46.09
53246;BME280;39569;51.090;-1.786;2023-12-22T00:46:26;100741.34;;;19.83;46.14
53246;BME280;39569;51.090;-1.786;2023-12-22T00:48:53;100740.41;;;18.77;48.46
53246;BME280;39569;51.090;-1.786;2023-12-22T00:51:19;100749.34;;;19.66;46.51
53246;BME280;39569;51.090;-1.786;2023-12-22T00:53:46;100745.97;;;20.17;45.03
53246;BME280;39569;51.090;-1.786;2023-12-22T00:56:14;100751.31;;;19.59;46.65
53246;BME280;39569;51.090;-1.786;2023-12-22T00:58:41;100768.75;;;20.16;45.22
53246;BME280;39569;51.090;-1.786;2023-12-22T01:01:07;100753.16;;;19.35;47.13
53246;BME280;39569;51.090;-1.786;2023-12-22T01:03:34;100750.44;;;19.88;46.13
53246;BME280;39569;51.090;-1.786;2023-12-22T01:06:01;100763.91;;;19.53;46.69
53246;BME280;39569;51.090;-1.786;2023-12-22T01:08:28;100765.34;;;20.43;45.20
53246;BME280;39569;51.090;-1.786;2023-12-22T01:10:54;100761.69;;;19.50;47.60
53246;BME280;39569;51.090;-1.786;2023-12-22T01:13:22;100763.91;;;20.18;46.21
53246;BME280;39569;51.090;-1.786;2023-12-22T01:15:49;100759.22;;;19.60;46.66
53246;BME280;39569;51.090;-1.786;2023-12-22T01:18:16;100763.41;;;19.98;46.71
53246;BME280;39569;51.090;-1.786;2023-12-22T01:20:43;100748.31;;;19.90;46.54
53246;BME280;39569;51.090;-1.786;2023-12-22T01:23:09;100756.72;;;20.12;45.86
53246;BME280;39569;51.090;-1.786;2023-12-22T01:25:36;100745.75;;;19.95;46.35
53246;BME280;39569;51.090;-1.786;2023-12-22T01:28:03;100741.63;;;20.39;45.67
53246;BME280;39569;51.090;-1.786;2023-12-22T01:30:31;100733.38;;;20.45;45.14
53246;BME280;39569;51.090;-1.786;2023-12-22T01:32:58;100731.66;;;19.52;47.02
53246;BME280;39569;51.090;-1.786;2023-12-22T01:35:25;100726.63;;;20.48;45.47
53246;BME280;39569;51.090;-1.786;2023-12-22T01:37:51;100739.28;;;19.43;47.68
53246;BME280;39569;51.090;-1.786;2023-12-22T01:40:18;100729.47;;;20.30;46.00
53246;BME280;39569;51.090;-1.786;2023-12-22T01:42:45;100722.25;;;20.12;46.23
53246;BME280;39569;51.090;-1.786;2023-12-22T01:45:12;100720.25;;;19.96;46.76
53246;BME280;39569;51.090;-1.786;2023-12-22T01:47:41;100729.38;;;20.25;46.11
53246;BME280;39569;51.090;-1.786;2023-12-22T01:50:09;100726.88;;;20.12;46.99
53246;BME280;39569;51.090;-1.786;2023-12-22T01:52:36;100726.63;;;19.67;47.51
53246;BME280;39569;51.090;-1.786;2023-12-22T01:55:05;100722.38;;;19.83;47.13
53246;BME280;39569;51.090;-1.786;2023-12-22T01:57:33;100729.06;;;19.45;48.12
53246;BME280;39569;51.090;-1.786;2023-12-22T02:00:00;100707.53;;;19.85;46.90
53246;BME280;39569;51.090;-1.786;2023-12-22T02:02:27;100710.56;;;19.77;47.08
53246;BME280;39569;51.090;-1.786;2023-12-22T02:04:56;100709.16;;;19.22;48.32
53246;BME280;39569;51.090;-1.786;2023-12-22T02:07:23;100704.78;;;19.50;47.35
53246;BME280;39569;51.090;-1.786;2023-12-22T02:09:50;100711.09;;;19.97;46.62
53246;BME280;39569;51.090;-1.786;2023-12-22T02:12:16;100712.22;;;20.13;46.12
53246;BME280;39569;51.090;-1.786;2023-12-22T02:14:43;100707.88;;;19.66;46.63
53246;BME280;39569;51.090;-1.786;2023-12-22T02:17:15;100715.91;;;20.18;46.27
53246;BME280;39569;51.090;-1.786;2023-12-22T02:19:48;100704.13;;;20.36;45.69
53246;BME280;39569;51.090;-1.786;2023-12-22T02:22:16;100717.06;;;19.53;47.48
53246;BME280;39569;51.090;-1.786;2023-12-22T02:24:44;100706.56;;;19.68;47.02
53246;BME280;39569;51.090;-1.786;2023-12-22T02:27:19;100711.78;;;20.16;45.56
53246;BME280;39569;51.090;-1.786;2023-12-22T02:29:50;100708.81;;;19.59;47.61
53246;BME280;39569;51.090;-1.786;2023-12-22T02:32:22;100724.63;;;19.33;48.12
53246;BME280;39569;51.090;-1.786;2023-12-22T02:34:52;100719.56;;;19.89;46.95
53246;BME280;39569;51.090;-1.786;2023-12-22T02:37:21;100723.88;;;20.60;45.04
53246;BME280;39569;51.090;-1.786;2023-12-22T02:39:51;100737.97;;;19.99;46.79
53246;BME280;39569;51.090;-1.786;2023-12-22T02:42:18;100734.75;;;19.90;46.84
53246;BME280;39569;51.090;-1.786;2023-12-22T02:44:48;100736.72;;;19.72;46.85
53246;BME280;39569;51.090;-1.786;2023-12-22T02:47:15;100728.22;;;19.45;47.37
53246;BME280;39569;51.090;-1.786;2023-12-22T02:49:42;100731.50;;;20.74;44.75
53246;BME280;39569;51.090;-1.786;2023-12-22T02:52:08;100732.31;;;19.47;47.59
53246;BME280;39569;51.090;-1.786;2023-12-22T02:54:35;100729.94;;;20.04;46.21
53246;BME280;39569;51.090;-1.786;2023-12-22T02:57:06;100733.00;;;19.84;47.20
53246;BME280;39569;51.090;-1.786;2023-12-22T02:59:33;100716.72;;;20.42;45.57
53246;BME280;39569;51.090;-1.786;2023-12-22T03:02:00;100708.03;;;19.94;45.87
53246;BME280;39569;51.090;-1.786;2023-12-22T03:04:26;100714.38;;;19.88;46.45
53246;BME280;39569;51.090;-1.786;2023-12-22T03:06:53;100709.53;;;20.36;45.12
53246;BME280;39569;51.090;-1.786;2023-12-22T03:09:20;100710.38;;;20.25;45.66
53246;BME280;39569;51.090;-1.786;2023-12-22T03:11:47;100710.97;;;19.81;46.51
53246;BME280;39569;51.090;-1.786;2023-12-22T03:14:15;100700.94;;;20.04;46.14
53246;BME280;39569;51.090;-1.786;2023-12-22T03:16:41;100706.56;;;20.14;45.95
53246;BME280;39569;51.090;-1.786;2023-12-22T03:19:08;100708.34;;;20.09;46.26
53246;BME280;39569;51.090;-1.786;2023-12-22T03:21:35;100710.63;;;20.23;45.90
53246;BME280;39569;51.090;-1.786;2023-12-22T03:24:02;100702.66;;;19.11;47.84
53246;BME280;39569;51.090;-1.786;2023-12-22T03:26:28;100700.25;;;19.97;46.17
53246;BME280;39569;51.090;-1.786;2023-12-22T03:28:55;100702.34;;;19.84;46.56
53246;BME280;39569;51.090;-1.786;2023-12-22T03:31:23;100680.19;;;19.98;46.70
53246;BME280;39569;51.090;-1.786;2023-12-22T03:33:50;100694.38;;;20.51;45.13
53246;BME280;39569;51.090;-1.786;2023-12-22T03:36:16;100695.72;;;20.49;45.05
53246;BME280;39569;51.090;-1.786;2023-12-22T03:38:43;100698.22;;;19.70;46.98
53246;BME280;39569;51.090;-1.786;2023-12-22T03:41:10;100703.38;;;19.83;46.43
53246;BME280;39569;51.090;-1.786;2023-12-22T03:43:36;100704.00;;;19.96;46.40
53246;BME280;39569;51.090;-1.786;2023-12-22T03:46:03;100699.50;;;19.67;47.11
53246;BME280;39569;51.090;-1.786;2023-12-22T03:48:31;100700.00;;;19.99;46.92
53246;BME280;39569;51.090;-1.786;2023-12-22T03:50:58;100697.38;;;19.92;46.80
53246;BME280;39569;51.090;-1.786;2023-12-22T03:53:25;100699.50;;;19.67;47.08
53246;BME280;39569;51.090;-1.786;2023-12-22T03:55:51;100696.00;;;19.90;46.91
53246;BME280;39569;51.090;-1.786;2023-12-22T03:58:18;100684.03;;;20.37;45.66
53246;BME280;39569;51.090;-1.786;2023-12-22T04:00:46;100687.59;;;20.37;45.81
53246;BME280;39569;51.090;-1.786;2023-12-22T04:03:13;100692.91;;;19.63;47.37
53246;BME280;39569;51.090;-1.786;2023-12-22T04:05:41;100689.03;;;19.82;47.42
53246;BME280;39569;51.090;-1.786;2023-12-22T04:08:07;100693.84;;;20.15;46.59
53246;BME280;39569;51.090;-1.786;2023-12-22T04:10:34;100684.53;;;19.65;47.72
53246;BME280;39569;51.090;-1.786;2023-12-22T04:13:01;100688.56;;;19.97;47.18
53246;BME280;39569;51.090;-1.786;2023-12-22T04:15:27;100681.72;;;19.18;48.96
53246;BME280;39569;51.090;-1.786;2023-12-22T04:17:54;100692.69;;;19.99;47.34
53246;BME280;39569;51.090;-1.786;2023-12-22T04:20:21;100690.81;;;19.88;47.45
53246;BME280;39569;51.090;-1.786;2023-12-22T04:22:49;100682.88;;;19.87;47.93
53246;BME280;39569;51.090;-1.786;2023-12-22T04:25:15;100695.47;;;19.46;48.04
53246;BME280;39569;51.090;-1.786;2023-12-22T04:27:43;100694.28;;;20.58;45.79
53246;BME280;39569;51.090;-1.786;2023-12-22T04:30:10;100694.25;;;20.70;45.52
53246;BME280;39569;51.090;-1.786;2023-12-22T04:32:37;100685.25;;;19.95;46.52
53246;BME280;39569;51.090;-1.786;2023-12-22T04:35:04;100680.53;;;20.13;46.39
53246;BME280;39569;51.090;-1.786;2023-12-22T04:37:31;100680.53;;;20.02;46.67
53246;BME280;39569;51.090;-1.786;2023-12-22T04:39:59;100673.81;;;20.67;45.11
53246;BME280;39569;51.090;-1.786;2023-12-22T04:42:26;100676.88;;;19.96;46.43
53246;BME280;39569;51.090;-1.786;2023-12-22T04:44:53;100674.28;;;19.67;46.70
53246;BME280;39569;51.090;-1.786;2023-12-22T04:47:20;100671.44;;;19.09;47.92
53246;BME280;39569;51.090;-1.786;2023-12-22T04:49:47;100695.19;;;19.36;47.50
53246;BME280;39569;51.090;-1.786;2023-12-22T04:52:13;100695.97;;;19.14;47.87
53246;BME280;39569;51.090;-1.786;2023-12-22T04:54:40;100689.88;;;19.30;48.00
53246;BME280;39569;51.090;-1.786;2023-12-22T04:57:08;100690.53;;;19.67;47.79
53246;BME280;39569;51.090;-1.786;2023-12-22T04:59:35;100686.31;;;20.05;46.37
53246;BME280;39569;51.090;-1.786;2023-12-22T05:02:01;100682.53;;;19.19;48.38
53246;BME280;39569;51.090;-1.786;2023-12-22T05:04:27;100664.88;;;19.69;46.77
53246;BME280;39569;51.090;-1.786;2023-12-22T05:06:54;100667.09;;;20.30;45.47
53246;BME280;39569;51.090;-1.786;2023-12-22T05:09:21;100650.72;;;19.55;46.70
53246;BME280;39569;51.090;-1.786;2023-12-22T05:11:49;100661.53;;;20.02;45.50
53246;BME280;39569;51.090;-1.786;2023-12-22T05:14:17;100663.53;;;19.37;47.44
53246;BME280;39569;51.090;-1.786;2023-12-22T05:16:44;100653.56;;;18.48;49.16
53246;BME280;39569;51.090;-1.786;2023-12-22T05:19:11;100648.03;;;18.73;48.82
53246;BME280;39569;51.090;-1.786;2023-12-22T05:21:37;100670.88;;;19.71;46.79
53246;BME280;39569;51.090;-1.786;2023-12-22T05:24:04;100676.97;;;19.55;47.04
53246;BME280;39569;51.090;-1.786;2023-12-22T05:26:31;100686.66;;;19.63;47.29
53246;BME280;39569;51.090;-1.786;2023-12-22T05:28:58;100684.06;;;19.56;47.28
53246;BME280;39569;51.090;-1.786;2023-12-22T05:31:26;100686.09;;;19.84;46.89
53246;BME280;39569;51.090;-1.786;2023-12-22T05:33:53;100690.19;;;19.63;47.09
53246;BME280;39569;51.090;-1.786;2023-12-22T05:36:20;100683.72;;;19.76;47.00
53246;BME280;39569;51.090;-1.786;2023-12-22T05:38:47;100687.47;;;20.09;46.32
53246;BME280;39569;51.090;-1.786;2023-12-22T05:41:14;100666.63;;;19.87;46.35
53246;BME280;39569;51.090;-1.786;2023-12-22T05:43:40;100676.28;;;19.83;47.00
53246;BME280;39569;51.090;-1.786;2023-12-22T05:46:07;100680.53;;;20.13;46.15
53246;BME280;39569;51.090;-1.786;2023-12-22T05:48:36;100684.66;;;20.04;46.23
53246;BME280;39569;51.090;-1.786;2023-12-22T05:51:03;100686.31;;;19.82;46.83
53246;BME280;39569;51.090;-1.786;2023-12-22T05:53:32;100688.41;;;20.15;46.18
53246;BME280;39569;51.090;-1.786;2023-12-22T05:55:59;100693.31;;;19.37;47.69
53246;BME280;39569;51.090;-1.786;2023-12-22T05:58:26;100700.00;;;18.93;48.84
53246;BME280;39569;51.090;-1.786;2023-12-22T06:00:52;100708.34;;;19.21;48.33
53246;BME280;39569;51.090;-1.786;2023-12-22T06:03:19;100702.34;;;19.19;48.54
53246;BME280;39569;51.090;-1.786;2023-12-22T06:05:47;100705.47;;;19.16;49.21
53246;BME280;39569;51.090;-1.786;2023-12-22T06:08:14;100698.06;;;19.12;48.67
53246;BME280;39569;51.090;-1.786;2023-12-22T06:10:41;100704.81;;;19.74;47.92
53246;BME280;39569;51.090;-1.786;2023-12-22T06:13:07;100709.50;;;18.84;50.15
53246;BME280;39569;51.090;-1.786;2023-12-22T06:15:34;100700.59;;;20.01;48.12
53246;BME280;39569;51.090;-1.786;2023-12-22T06:18:01;100702.31;;;19.49;49.15
53246;BME280;39569;51.090;-1.786;2023-12-22T06:20:27;100714.88;;;19.32;48.94
53246;BME280;39569;51.090;-1.786;2023-12-22T06:22:56;100695.34;;;19.41;49.54
53246;BME280;39569;51.090;-1.786;2023-12-22T06:25:22;100707.50;;;19.50;48.85
53246;BME280;39569;51.090;-1.786;2023-12-22T06:27:49;100704.63;;;19.04;49.81
53246;BME280;39569;51.090;-1.786;2023-12-22T06:30:16;100700.66;;;19.18;49.65
53246;BME280;39569;51.090;-1.786;2023-12-22T06:32:42;100684.19;;;19.20;49.50
53246;BME280;39569;51.090;-1.786;2023-12-22T06:35:09;100693.25;;;19.43;48.41
53246;BME280;39569;51.090;-1.786;2023-12-22T06:37:36;100689.38;;;19.74;47.80
53246;BME280;39569;51.090;-1.786;2023-12-22T06:40:06;100695.97;;;19.78;47.64
53246;BME280;39569;51.090;-1.786;2023-12-22T06:42:33;100705.72;;;19.44;48.31
53246;BME280;39569;51.090;-1.786;2023-12-22T06:44:59;100706.31;;;18.87;48.90
53246;BME280;39569;51.090;-1.786;2023-12-22T06:47:26;100721.59;;;19.11;48.47
53246;BME280;39569;51.090;-1.786;2023-12-22T06:49:53;100711.41;;;19.25;48.71
53246;BME280;39569;51.090;-1.786;2023-12-22T06:52:20;100712.50;;;19.88;47.24
53246;BME280;39569;51.090;-1.786;2023-12-22T06:54:46;100710.00;;;18.93;49.81
53246;BME280;39569;51.090;-1.786;2023-12-22T06:57:15;100706.03;;;19.36;48.53
53246;BME280;39569;51.090;-1.786;2023-12-22T06:59:42;100712.59;;;19.58;48.12
53246;BME280;39569;51.090;-1.786;2023-12-22T07:02:09;100720.25;;;19.73;47.64
53246;BME280;39569;51.090;-1.786;2023-12-22T07:04:36;100724.00;;;18.90;50.15
53246;BME280;39569;51.090;-1.786;2023-12-22T07:07:02;100735.50;;;19.15;50.33
53246;BME280;39569;51.090;-1.786;2023-12-22T07:09:32;100739.13;;;19.09;50.77
53246;BME280;39569;51.090;-1.786;2023-12-22T07:11:59;100724.47;;;18.69;51.80
53246;BME280;39569;51.090;-1.786;2023-12-22T07:14:28;100727.91;;;19.53;50.27
53246;BME280;39569;51.090;-1.786;2023-12-22T07:16:54;100737.38;;;19.32;50.33
53246;BME280;39569;51.090;-1.786;2023-12-22T07:19:23;100751.09;;;19.49;49.67
53246;BME280;39569;51.090;-1.786;2023-12-22T07:21:50;100748.22;;;19.14;50.24
53246;BME280;39569;51.090;-1.786;2023-12-22T07:24:16;100744.72;;;19.55;49.09
53246;BME280;39569;51.090;-1.786;2023-12-22T07:26:44;100750.56;;;18.45;51.03
53246;BME280;39569;51.090;-1.786;2023-12-22T07:29:11;100760.53;;;18.99;49.86
53246;BME280;39569;51.090;-1.786;2023-12-22T07:31:39;100769.63;;;18.68;50.63
53246;BME280;39569;51.090;-1.786;2023-12-22T07:34:06;100762.88;;;18.77;49.71
53246;BME280;39569;51.090;-1.786;2023-12-22T07:36:33;100765.28;;;18.06;50.28
53246;BME280;39569;51.090;-1.786;2023-12-22T07:38:59;100775.41;;;18.11;50.27
53246;BME280;39569;51.090;-1.786;2023-12-22T07:41:26;100769.81;;;18.12;49.78
53246;BME280;39569;51.090;-1.786;2023-12-22T07:43:53;100752.19;;;18.82;48.11
53246;BME280;39569;51.090;-1.786;2023-12-22T07:46:20;100760.91;;;18.66;48.54
53246;BME280;39569;51.090;-1.786;2023-12-22T07:48:48;100767.78;;;18.26;49.09
53246;BME280;39569;51.090;-1.786;2023-12-22T07:51:15;100786.47;;;17.53;50.35
53246;BME280;39569;51.090;-1.786;2023-12-22T07:53:42;100780.66;;;18.30;49.39
53246;BME280;39569;51.090;-1.786;2023-12-22T07:56:09;100787.66;;;18.13;48.91
53246;BME280;39569;51.090;-1.786;2023-12-22T07:58:37;100776.09;;;18.67;47.90
53246;BME280;39569;51.090;-1.786;2023-12-22T08:01:04;100769.50;;;19.11;47.00
53246;BME280;39569;51.090;-1.786;2023-12-22T08:03:32;100786.13;;;17.99;48.67
53246;BME280;39569;51.090;-1.786;2023-12-22T08:06:00;100782.53;;;18.05;48.79
53246;BME280;39569;51.090;-1.786;2023-12-22T08:08:27;100785.16;;;17.94;49.04
53246;BME280;39569;51.090;-1.786;2023-12-22T08:10:54;100792.34;;;18.24;48.13
53246;BME280;39569;51.090;-1.786;2023-12-22T08:13:20;100802.94;;;18.26;47.65
53246;BME280;39569;51.090;-1.786;2023-12-22T08:15:47;100807.19;;;18.40;47.50
53246;BME280;39569;51.090;-1.786;2023-12-22T08:18:14;100800.91;;;18.82;46.73
53246;BME280;39569;51.090;-1.786;2023-12-22T08:20:41;100803.91;;;18.92;46.20
53246;BME280;39569;51.090;-1.786;2023-12-22T08:23:09;100820.50;;;18.96;46.28
53246;BME280;39569;51.090;-1.786;2023-12-22T08:25:37;100825.34;;;18.94;46.53
53246;BME280;39569;51.090;-1.786;2023-12-22T08:28:05;100817.22;;;18.94;46.34
53246;BME280;39569;51.090;-1.786;2023-12-22T08:30:32;100810.97;;;19.11;45.79
53246;BME280;39569;51.090;-1.786;2023-12-22T08:32:59;100825.34;;;18.94;46.40
53246;BME280;39569;51.090;-1.786;2023-12-22T08:35:26;100823.53;;;19.06;46.05
53246;BME280;39569;51.090;-1.786;2023-12-22T08:37:52;100818.31;;;18.50;46.55
53246;BME280;39569;51.090;-1.786;2023-12-22T08:40:20;100819.19;;;19.05;46.01
53246;BME280;39569;51.090;-1.786;2023-12-22T08:42:51;100836.41;;;19.10;45.36
53246;BME280;39569;51.090;-1.786;2023-12-22T08:45:19;100829.63;;;19.19;45.59
53246;BME280;39569;51.090;-1.786;2023-12-22T08:47:46;100835.50;;;18.98;45.55
53246;BME280;39569;51.090;-1.786;2023-12-22T08:50:13;100841.47;;;19.18;45.31
53246;BME280;39569;51.090;-1.786;2023-12-22T08:52:40;100832.31;;;19.19;44.88
53246;BME280;39569;51.090;-1.786;2023-12-22T08:55:07;100830.63;;;19.54;44.26
53246;BME280;39569;51.090;-1.786;2023-12-22T08:57:35;100839.78;;;19.53;44.56
53246;BME280;39569;51.090;-1.786;2023-12-22T09:00:02;100847.06;;;18.87;45.40
53246;BME280;39569;51.090;-1.786;2023-12-22T09:02:30;100839.16;;;19.70;43.67
53246;BME280;39569;51.090;-1.786;2023-12-22T09:04:56;100844.94;;;19.43;44.27
53246;BME280;39569;51.090;-1.786;2023-12-22T09:07:23;100842.63;;;18.75;44.57
53246;BME280;39569;51.090;-1.786;2023-12-22T09:09:50;100839.91;;;19.88;43.35
53246;BME280;39569;51.090;-1.786;2023-12-22T09:12:16;100832.53;;;19.66;43.22
53246;BME280;39569;51.090;-1.786;2023-12-22T09:14:44;100832.66;;;18.75;44.88
53246;BME280;39569;51.090;-1.786;2023-12-22T09:17:11;100835.31;;;18.57;45.20
53246;BME280;39569;51.090;-1.786;2023-12-22T09:19:38;100841.75;;;18.99;44.82
53246;BME280;39569;51.090;-1.786;2023-12-22T09:22:05;100842.94;;;19.03;44.70
53246;BME280;39569;51.090;-1.786;2023-12-22T09:24:32;100851.13;;;19.32;44.51
53246;BME280;39569;51.090;-1.786;2023-12-22T09:26:59;100850.91;;;19.34;43.89
53246;BME280;39569;51.090;-1.786;2023-12-22T09:29:28;100845.38;;;19.40;43.82
53246;BME280;39569;51.090;-1.786;2023-12-22T09:31:56;100861.94;;;19.50;43.77
53246;BME280;39569;51.090;-1.786;2023-12-22T09:34:25;100857.25;;;19.99;42.96
53246;BME280;39569;51.090;-1.786;2023-12-22T09:36:52;100862.94;;;19.38;43.63
53246;BME280;39569;51.090;-1.786;2023-12-22T09:39:19;100863.28;;;19.59;43.49
53246;BME280;39569;51.090;-1.786;2023-12-22T09:41:48;100873.69;;;19.74;43.22
53246;BME280;39569;51.090;-1.786;2023-12-22T09:44:18;100867.53;;;19.67;43.91
53246;BME280;39569;51.090;-1.786;2023-12-22T09:46:46;100857.16;;;19.34;43.57
53246;BME280;39569;51.090;-1.786;2023-12-22T09:49:15;100870.84;;;19.69;43.13
53246;BME280;39569;51.090;-1.786;2023-12-22T09:51:44;100870.31;;;19.60;43.85
53246;BME280;39569;51.090;-1.786;2023-12-22T09:54:11;100882.41;;;19.76;42.99
53246;BME280;39569;51.090;-1.786;2023-12-22T09:56:38;100869.59;;;20.47;42.10
53246;BME280;39569;51.090;-1.786;2023-12-22T09:59:10;100879.34;;;19.43;43.33
53246;BME280;39569;51.090;-1.786;2023-12-22T10:01:40;100875.88;;;20.07;42.22
53246;BME280;39569;51.090;-1.786;2023-12-22T10:04:09;100889.34;;;19.72;42.52
53246;BME280;39569;51.090;-1.786;2023-12-22T10:06:37;100874.56;;;20.39;41.81
53246;BME280;39569;51.090;-1.786;2023-12-22T10:09:04;100888.47;;;19.90;42.15
53246;BME280;39569;51.090;-1.786;2023-12-22T10:11:34;100884.00;;;20.25;41.62
53246;BME280;39569;51.090;-1.786;2023-12-22T10:14:02;100894.50;;;20.03;42.01
53246;BME280;39569;51.090;-1.786;2023-12-22T10:16:29;100911.72;;;20.38;41.83
53246;BME280;39569;51.090;-1.786;2023-12-22T10:18:56;100909.63;;;19.70;43.40
53246;BME280;39569;51.090;-1.786;2023-12-22T10:21:25;100897.31;;;19.37;43.22
53246;BME280;39569;51.090;-1.786;2023-12-22T10:23:53;100900.13;;;19.90;42.29
53246;BME280;39569;51.090;-1.786;2023-12-22T10:26:19;100911.03;;;19.72;42.42
53246;BME280;39569;51.090;-1.786;2023-12-22T10:28:47;100916.22;;;19.74;42.57
53246;BME280;39569;51.090;-1.786;2023-12-22T10:31:14;100907.97;;;19.69;42.48
53246;BME280;39569;51.090;-1.786;2023-12-22T10:33:42;100905.03;;;20.76;40.62
53246;BME280;39569;51.090;-1.786;2023-12-22T10:36:09;100912.22;;;19.76;42.47
53246;BME280;39569;51.090;-1.786;2023-12-22T10:38:36;100906.56;;;19.78;42.64
53246;BME280;39569;51.090;-1.786;2023-12-22T10:41:05;100907.31;;;19.85;42.58
53246;BME280;39569;51.090;-1.786;2023-12-22T10:43:37;100909.81;;;19.56;42.68
53246;BME280;39569;51.090;-1.786;2023-12-22T10:46:04;100901.34;;;19.94;41.86
53246;BME280;39569;51.090;-1.786;2023-12-22T10:48:31;100882.53;;;19.51;42.08
53246;BME280;39569;51.090;-1.786;2023-12-22T10:50:58;100908.28;;;20.31;41.19
53246;BME280;39569;51.090;-1.786;2023-12-22T10:53:25;100915.28;;;19.50;43.14
53246;BME280;39569;51.090;-1.786;2023-12-22T10:55:51;100912.56;;;20.39;41.12
53246;BME280;39569;51.090;-1.786;2023-12-22T10:58:21;100917.53;;;20.01;41.85
53246;BME280;39569;51.090;-1.786;2023-12-22T11:00:49;100922.47;;;20.04;41.94
53246;BME280;39569;51.090;-1.786;2023-12-22T11:03:18;100930.84;;;20.02;41.84
53246;BME280;39569;51.090;-1.786;2023-12-22T11:05:46;100934.03;;;19.51;43.15
53246;BME280;39569;51.090;-1.786;2023-12-22T11:08:13;100925.00;;;19.21;43.28
53246;BME280;39569;51.090;-1.786;2023-12-22T11:10:42;100941.22;;;20.05;42.02
53246;BME280;39569;51.090;-1.786;2023-12-22T11:13:10;100931.91;;;20.42;41.44
53246;BME280;39569;51.090;-1.786;2023-12-22T11:15:40;100935.16;;;19.62;42.84
53246;BME280;39569;51.090;-1.786;2023-12-22T11:18:08;100930.78;;;20.73;40.98
53246;BME280;39569;51.090;-1.786;2023-12-22T11:20:35;100922.16;;;20.12;41.19
53246;BME280;39569;51.090;-1.786;2023-12-22T11:23:04;100911.66;;;20.15;41.92
53246;BME280;39569;51.090;-1.786;2023-12-22T11:25:31;100924.28;;;20.51;40.94
53246;BME280;39569;51.090;-1.786;2023-12-22T11:28:00;100920.41;;;19.88;41.93
53246;BME280;39569;51.090;-1.786;2023-12-22T11:30:29;100917.53;;;20.01;42.42
53246;BME280;39569;51.090;-1.786;2023-12-22T11:32:59;100906.50;;;20.25;41.46
53246;BME280;39569;51.090;-1.786;2023-12-22T11:35:27;100901.50;;;20.75;40.66
53246;BME280;39569;51.090;-1.786;2023-12-22T11:37:54;100900.13;;;20.20;41.31
53246;BME280;39569;51.090;-1.786;2023-12-22T11:40:23;100900.16;;;20.31;41.58
53246;BME280;39569;51.090;-1.786;2023-12-22T11:42:50;100903.47;;;21.14;39.99
53246;BME280;39569;51.090;-1.786;2023-12-22T11:45:17;100902.28;;;19.88;41.98
53246;BME280;39569;51.090;-1.786;2023-12-22T11:47:45;100912.41;;;19.63;42.63
53246;BME280;39569;51.090;-1.786;2023-12-22T11:50:28;100898.41;;;20.72;40.79
53246;BME280;39569;51.090;-1.786;2023-12-22T11:52:55;100909.72;;;20.34;40.97
53246;BME280;39569;51.090;-1.786;2023-12-22T11:58:35;100910.22;;;20.54;41.21
53246;BME280;39569;51.090;-1.786;2023-12-22T12:01:04;100908.94;;;20.57;40.78
53246;BME280;39569;51.090;-1.786;2023-12-22T12:03:31;100915.03;;;19.40;42.70
53246;BME280;39569;51.090;-1.786;2023-12-22T12:06:15;100907.97;;;20.86;40.42
53246;BME280;39569;51.090;-1.786;2023-12-22T12:08:42;100895.34;;;20.91;39.71
53246;BME280;39569;51.090;-1.786;2023-12-22T12:11:09;100906.56;;;20.95;40.10
53246;BME280;39569;51.090;-1.786;2023-12-22T12:13:41;100907.72;;;20.41;40.78
53246;BME280;39569;51.090;-1.786;2023-12-22T12:16:10;100904.66;;;20.61;41.30
53246;BME280;39569;51.090;-1.786;2023-12-22T12:18:37;100897.28;;;19.85;41.90
53246;BME280;39569;51.090;-1.786;2023-12-22T12:21:06;100897.59;;;20.07;41.93
53246;BME280;39569;51.090;-1.786;2023-12-22T12:23:35;100881.66;;;20.63;40.82
53246;BME280;39569;51.090;-1.786;2023-12-22T12:26:02;100875.66;;;20.38;40.95
53246;BME280;39569;51.090;-1.786;2023-12-22T12:28:31;100863.69;;;20.27;42.30
53246;BME280;39569;51.090;-1.786;2023-12-22T12:30:58;100873.38;;;20.23;41.66
53246;BME280;39569;51.090;-1.786;2023-12-22T12:33:26;100879.91;;;21.43;40.13
53246;BME280;39569;51.090;-1.786;2023-12-22T12:35:54;100869.94;;;21.09;40.56
53246;BME280;39569;51.090;-1.786;2023-12-22T12:38:26;100859.13;;;20.51;41.26
53246;BME280;39569;51.090;-1.786;2023-12-22T12:40:56;100877.13;;;19.51;42.74
53246;BME280;39569;51.090;-1.786;2023-12-22T12:43:25;100887.81;;;20.06;41.42
53246;BME280;39569;51.090;-1.786;2023-12-22T12:45:52;100894.50;;;19.62;42.54